Itamaraju, Brazil
Current Conditions -  °F | °C
As of 9:00 AM on Thursday 23 Oct 2014 (Local Time) from SBPS Reporting Station
Light Rain Light Rain  
Wind Chill: 72°   Ceiling: 2000
Heat Index: 72°   Visibility: 5mi
Dew Point: 70°   Wind: 3mph
Humidity: 94%   Direction: NA
Pressure: 30.12"   Gusts: NA
Location:  17.04°S, 39.53°W
Report Text: SBPS 231200Z VRB03KT 8000 -RA SCT002 SCT010 BKN020 22/21 Q1020
Loading
Personal Weather Stations






























Interactive Weather Map
Tropical Storm Tracking
New forecast layout! Learn more

10-Day Weather Forecast

Advertisements
Track Severe Weather on mobile